sensor_id;sensor_type;location;lat;lon;timestamp;pressure;altitude;pressure_sealevel;temperature;humidity
62946;BME280;52164;52.212;-1.010;2023-02-04T00:01:48;102561.38;;;8.38;75.73
62946;BME280;52164;52.212;-1.010;2023-02-04T00:04:13;102561.73;;;8.38;75.51
62946;BME280;52164;52.212;-1.010;2023-02-04T00:06:39;102562.54;;;8.36;75.75
62946;BME280;52164;52.212;-1.010;2023-02-04T00:09:04;102568.48;;;8.33;75.84
62946;BME280;52164;52.212;-1.010;2023-02-04T00:11:30;102566.27;;;8.31;75.81
62946;BME280;52164;52.212;-1.010;2023-02-04T00:13:55;102564.20;;;8.28;76.12
62946;BME280;52164;52.212;-1.010;2023-02-04T00:16:20;102567.70;;;8.27;76.25
62946;BME280;52164;52.212;-1.010;2023-02-04T00:18:46;102568.02;;;8.26;76.33
62946;BME280;52164;52.212;-1.010;2023-02-04T00:21:11;102577.51;;;8.27;76.54
62946;BME280;52164;52.212;-1.010;2023-02-04T00:23:36;102580.20;;;8.28;76.45
62946;BME280;52164;52.212;-1.010;2023-02-04T00:26:02;102577.77;;;8.30;76.86
62946;BME280;52164;52.212;-1.010;2023-02-04T00:28:27;102580.51;;;8.32;76.99
62946;BME280;52164;52.212;-1.010;2023-02-04T00:30:52;102582.59;;;8.35;77.11
62946;BME280;52164;52.212;-1.010;2023-02-04T00:33:17;102583.25;;;8.37;76.99
62946;BME280;52164;52.212;-1.010;2023-02-04T00:35:44;102581.40;;;8.40;77.26
62946;BME280;52164;52.212;-1.010;2023-02-04T00:38:09;102582.55;;;8.42;77.11
62946;BME280;52164;52.212;-1.010;2023-02-04T00:40:34;102584.54;;;8.43;77.43
62946;BME280;52164;52.212;-1.010;2023-02-04T00:43:00;102579.09;;;8.44;77.62
62946;BME280;52164;52.212;-1.010;2023-02-04T00:45:26;102586.31;;;8.46;77.85
62946;BME280;52164;52.212;-1.010;2023-02-04T00:47:51;102589.40;;;8.48;77.82
62946;BME280;52164;52.212;-1.010;2023-02-04T00:50:16;102590.38;;;8.50;77.76
62946;BME280;52164;52.212;-1.010;2023-02-04T00:52:42;102592.20;;;8.51;77.89
62946;BME280;52164;52.212;-1.010;2023-02-04T00:55:07;102594.20;;;8.52;77.98
62946;BME280;52164;52.212;-1.010;2023-02-04T00:57:34;102597.52;;;8.50;78.01
62946;BME280;52164;52.212;-1.010;2023-02-04T01:00:02;102594.77;;;8.49;78.06
62946;BME280;52164;52.212;-1.010;2023-02-04T01:02:28;102597.61;;;8.44;77.74
62946;BME280;52164;52.212;-1.010;2023-02-04T01:04:53;102599.08;;;8.41;78.15
62946;BME280;52164;52.212;-1.010;2023-02-04T01:07:19;102599.67;;;8.39;78.46
62946;BME280;52164;52.212;-1.010;2023-02-04T01:09:44;102603.34;;;8.37;78.40
62946;BME280;52164;52.212;-1.010;2023-02-04T01:12:09;102599.31;;;8.35;78.04
62946;BME280;52164;52.212;-1.010;2023-02-04T01:14:34;102604.20;;;8.32;78.34
62946;BME280;52164;52.212;-1.010;2023-02-04T01:17:00;102605.52;;;8.30;78.55
62946;BME280;52164;52.212;-1.010;2023-02-04T01:19:25;102604.02;;;8.28;78.53
62946;BME280;52164;52.212;-1.010;2023-02-04T01:21:50;102605.37;;;8.26;78.58
62946;BME280;52164;52.212;-1.010;2023-02-04T01:24:16;102604.59;;;8.25;78.70
62946;BME280;52164;52.212;-1.010;2023-02-04T01:26:41;102604.86;;;8.23;78.70
62946;BME280;52164;52.212;-1.010;2023-02-04T01:29:06;102609.42;;;8.25;78.70
62946;BME280;52164;52.212;-1.010;2023-02-04T01:31:32;102614.11;;;8.27;78.67
62946;BME280;52164;52.212;-1.010;2023-02-04T01:33:58;102614.23;;;8.29;78.80
62946;BME280;52164;52.212;-1.010;2023-02-04T01:36:23;102617.25;;;8.34;79.11
62946;BME280;52164;52.212;-1.010;2023-02-04T01:38:49;102618.92;;;8.35;78.91
62946;BME280;52164;52.212;-1.010;2023-02-04T01:41:14;102619.77;;;8.39;78.95
62946;BME280;52164;52.212;-1.010;2023-02-04T01:43:41;102620.18;;;8.40;78.81
62946;BME280;52164;52.212;-1.010;2023-02-04T01:46:07;102619.54;;;8.41;78.89
62946;BME280;52164;52.212;-1.010;2023-02-04T01:48:32;102623.88;;;8.43;78.95
62946;BME280;52164;52.212;-1.010;2023-02-04T01:51:03;102620.77;;;8.44;79.06
62946;BME280;52164;52.212;-1.010;2023-02-04T01:53:29;102624.69;;;8.45;78.95
62946;BME280;52164;52.212;-1.010;2023-02-04T01:55:55;102622.74;;;8.45;78.99
62946;BME280;52164;52.212;-1.010;2023-02-04T01:58:21;102622.52;;;8.44;78.79
62946;BME280;52164;52.212;-1.010;2023-02-04T02:00:46;102626.77;;;8.44;78.83
62946;BME280;52164;52.212;-1.010;2023-02-04T02:03:11;102629.83;;;8.41;78.85
62946;BME280;52164;52.212;-1.010;2023-02-04T02:08:03;102633.11;;;8.38;78.75
62946;BME280;52164;52.212;-1.010;2023-02-04T02:10:32;102629.40;;;8.35;78.80
62946;BME280;52164;52.212;-1.010;2023-02-04T02:12:59;102625.36;;;8.32;79.03
62946;BME280;52164;52.212;-1.010;2023-02-04T02:15:25;102626.33;;;8.30;78.99
62946;BME280;52164;52.212;-1.010;2023-02-04T02:17:51;102623.42;;;8.28;79.07
62946;BME280;52164;52.212;-1.010;2023-02-04T02:20:17;102621.54;;;8.25;79.43
62946;BME280;52164;52.212;-1.010;2023-02-04T02:22:48;102617.34;;;8.23;79.63
62946;BME280;52164;52.212;-1.010;2023-02-04T02:25:16;102616.17;;;8.21;79.17
62946;BME280;52164;52.212;-1.010;2023-02-04T02:27:41;102614.02;;;8.20;79.52
62946;BME280;52164;52.212;-1.010;2023-02-04T02:30:07;102615.94;;;8.19;79.58
62946;BME280;52164;52.212;-1.010;2023-02-04T02:32:34;102610.42;;;8.19;79.73
62946;BME280;52164;52.212;-1.010;2023-02-04T02:34:59;102615.98;;;8.21;79.63
62946;BME280;52164;52.212;-1.010;2023-02-04T02:37:25;102616.04;;;8.22;79.71
62946;BME280;52164;52.212;-1.010;2023-02-04T02:39:50;102616.15;;;8.24;79.33
62946;BME280;52164;52.212;-1.010;2023-02-04T02:42:16;102612.70;;;8.27;79.57
62946;BME280;52164;52.212;-1.010;2023-02-04T02:44:44;102606.44;;;8.30;79.75
62946;BME280;52164;52.212;-1.010;2023-02-04T02:47:11;102610.25;;;8.32;79.82
62946;BME280;52164;52.212;-1.010;2023-02-04T02:49:38;102612.69;;;8.35;79.74
62946;BME280;52164;52.212;-1.010;2023-02-04T02:52:04;102607.23;;;8.37;79.61
62946;BME280;52164;52.212;-1.010;2023-02-04T02:54:30;102604.61;;;8.38;79.68
62946;BME280;52164;52.212;-1.010;2023-02-04T02:56:56;102606.21;;;8.38;79.85
62946;BME280;52164;52.212;-1.010;2023-02-04T02:59:22;102607.09;;;8.37;79.61
62946;BME280;52164;52.212;-1.010;2023-02-04T03:01:49;102603.63;;;8.35;79.59
62946;BME280;52164;52.212;-1.010;2023-02-04T03:04:15;102607.64;;;8.34;79.62
62946;BME280;52164;52.212;-1.010;2023-02-04T03:06:42;102607.16;;;8.31;79.49
62946;BME280;52164;52.212;-1.010;2023-02-04T03:09:08;102604.36;;;8.27;79.42
62946;BME280;52164;52.212;-1.010;2023-02-04T03:11:33;102608.73;;;8.25;79.52
62946;BME280;52164;52.212;-1.010;2023-02-04T03:13:58;102603.48;;;8.23;79.45
62946;BME280;52164;52.212;-1.010;2023-02-04T03:16:26;102599.48;;;8.21;79.15
62946;BME280;52164;52.212;-1.010;2023-02-04T03:18:52;102596.67;;;8.18;79.28
62946;BME280;52164;52.212;-1.010;2023-02-04T03:21:18;102600.86;;;8.16;79.57
62946;BME280;52164;52.212;-1.010;2023-02-04T03:23:43;102603.73;;;8.17;79.73
62946;BME280;52164;52.212;-1.010;2023-02-04T03:26:08;102608.04;;;8.18;79.76
62946;BME280;52164;52.212;-1.010;2023-02-04T03:28:37;102603.10;;;8.19;79.76
62946;BME280;52164;52.212;-1.010;2023-02-04T03:31:03;102602.30;;;8.21;80.07
62946;BME280;52164;52.212;-1.010;2023-02-04T03:33:28;102601.77;;;8.25;80.05
62946;BME280;52164;52.212;-1.010;2023-02-04T03:35:56;102607.70;;;8.27;80.10
62946;BME280;52164;52.212;-1.010;2023-02-04T03:38:21;102606.77;;;8.29;80.14
62946;BME280;52164;52.212;-1.010;2023-02-04T03:40:46;102604.17;;;8.32;80.06
62946;BME280;52164;52.212;-1.010;2023-02-04T03:43:11;102600.42;;;8.35;80.33
62946;BME280;52164;52.212;-1.010;2023-02-04T03:45:39;102594.52;;;8.39;80.18
62946;BME280;52164;52.212;-1.010;2023-02-04T03:48:04;102591.70;;;8.39;79.85
62946;BME280;52164;52.212;-1.010;2023-02-04T03:50:30;102589.84;;;8.38;80.01
62946;BME280;52164;52.212;-1.010;2023-02-04T03:52:55;102587.68;;;8.37;79.93
62946;BME280;52164;52.212;-1.010;2023-02-04T03:55:20;102587.39;;;8.34;79.48
62946;BME280;52164;52.212;-1.010;2023-02-04T03:57:45;102595.19;;;8.29;79.67
62946;BME280;52164;52.212;-1.010;2023-02-04T04:00:11;102593.63;;;8.26;79.75
62946;BME280;52164;52.212;-1.010;2023-02-04T04:02:39;102591.91;;;8.23;79.89
62946;BME280;52164;52.212;-1.010;2023-02-04T04:05:05;102597.27;;;8.20;79.62
62946;BME280;52164;52.212;-1.010;2023-02-04T04:07:31;102595.13;;;8.16;79.71
62946;BME280;52164;52.212;-1.010;2023-02-04T04:09:56;102593.45;;;8.14;80.38
62946;BME280;52164;52.212;-1.010;2023-02-04T04:12:21;102595.57;;;8.13;80.34
62946;BME280;52164;52.212;-1.010;2023-02-04T04:14:46;102594.33;;;8.14;80.43
62946;BME280;52164;52.212;-1.010;2023-02-04T04:17:12;102595.59;;;8.14;80.41
62946;BME280;52164;52.212;-1.010;2023-02-04T04:19:37;102602.15;;;8.14;80.31
62946;BME280;52164;52.212;-1.010;2023-02-04T04:22:02;102601.05;;;8.13;80.52
62946;BME280;52164;52.212;-1.010;2023-02-04T04:24:27;102606.21;;;8.13;80.41
62946;BME280;52164;52.212;-1.010;2023-02-04T04:26:53;102609.64;;;8.14;80.38
62946;BME280;52164;52.212;-1.010;2023-02-04T04:29:18;102611.56;;;8.13;80.66
62946;BME280;52164;52.212;-1.010;2023-02-04T04:31:43;102609.39;;;8.13;80.70
62946;BME280;52164;52.212;-1.010;2023-02-04T04:34:09;102614.59;;;8.13;80.81
62946;BME280;52164;52.212;-1.010;2023-02-04T04:36:35;102614.45;;;8.14;80.87
62946;BME280;52164;52.212;-1.010;2023-02-04T04:39:00;102615.03;;;8.15;80.76
62946;BME280;52164;52.212;-1.010;2023-02-04T04:41:25;102616.48;;;8.16;80.89
62946;BME280;52164;52.212;-1.010;2023-02-04T04:43:50;102619.58;;;8.18;81.18
62946;BME280;52164;52.212;-1.010;2023-02-04T04:46:16;102623.00;;;8.18;80.88
62946;BME280;52164;52.212;-1.010;2023-02-04T04:48:41;102625.33;;;8.18;80.83
62946;BME280;52164;52.212;-1.010;2023-02-04T04:51:06;102624.63;;;8.19;81.05
62946;BME280;52164;52.212;-1.010;2023-02-04T04:53:31;102626.17;;;8.18;81.03
62946;BME280;52164;52.212;-1.010;2023-02-04T04:55:57;102627.79;;;8.18;80.94
62946;BME280;52164;52.212;-1.010;2023-02-04T04:58:22;102631.64;;;8.17;81.00
62946;BME280;52164;52.212;-1.010;2023-02-04T05:00:47;102633.61;;;8.17;81.11
62946;BME280;52164;52.212;-1.010;2023-02-04T05:03:14;102637.92;;;8.18;81.12
62946;BME280;52164;52.212;-1.010;2023-02-04T05:05:39;102640.55;;;8.17;81.30
62946;BME280;52164;52.212;-1.010;2023-02-04T05:08:06;102637.33;;;8.17;81.26
62946;BME280;52164;52.212;-1.010;2023-02-04T05:10:37;102634.92;;;8.15;81.25
62946;BME280;52164;52.212;-1.010;2023-02-04T05:13:02;102635.67;;;8.12;81.18
62946;BME280;52164;52.212;-1.010;2023-02-04T05:15:27;102640.56;;;8.09;81.23
62946;BME280;52164;52.212;-1.010;2023-02-04T05:17:52;102641.84;;;8.06;81.04
62946;BME280;52164;52.212;-1.010;2023-02-04T05:20:18;102640.64;;;8.03;81.22
62946;BME280;52164;52.212;-1.010;2023-02-04T05:22:43;102641.94;;;8.01;80.97
62946;BME280;52164;52.212;-1.010;2023-02-04T05:25:08;102648.11;;;7.99;81.29
62946;BME280;52164;52.212;-1.010;2023-02-04T05:27:34;102646.61;;;7.98;81.45
62946;BME280;52164;52.212;-1.010;2023-02-04T05:30:00;102649.60;;;7.97;81.19
62946;BME280;52164;52.212;-1.010;2023-02-04T05:32:25;102653.27;;;7.95;81.20
62946;BME280;52164;52.212;-1.010;2023-02-04T05:34:50;102653.25;;;7.94;81.28
62946;BME280;52164;52.212;-1.010;2023-02-04T05:37:16;102654.45;;;7.93;81.38
62946;BME280;52164;52.212;-1.010;2023-02-04T05:39:43;102652.77;;;7.91;81.55
62946;BME280;52164;52.212;-1.010;2023-02-04T05:42:08;102654.92;;;7.92;81.56
62946;BME280;52164;52.212;-1.010;2023-02-04T05:44:33;102654.06;;;7.92;81.43
62946;BME280;52164;52.212;-1.010;2023-02-04T05:46:58;102660.06;;;7.92;81.55
62946;BME280;52164;52.212;-1.010;2023-02-04T05:49:24;102665.42;;;7.92;81.46
62946;BME280;52164;52.212;-1.010;2023-02-04T05:51:49;102663.30;;;7.92;81.37
62946;BME280;52164;52.212;-1.010;2023-02-04T05:54:14;102666.80;;;7.91;81.80
62946;BME280;52164;52.212;-1.010;2023-02-04T05:56:43;102668.02;;;7.91;81.63
62946;BME280;52164;52.212;-1.010;2023-02-04T05:59:09;102667.65;;;7.90;81.35
62946;BME280;52164;52.212;-1.010;2023-02-04T06:01:34;102668.33;;;7.90;81.32
62946;BME280;52164;52.212;-1.010;2023-02-04T06:03:59;102670.77;;;7.89;81.22
62946;BME280;52164;52.212;-1.010;2023-02-04T06:06:24;102673.20;;;7.87;81.58
62946;BME280;52164;52.212;-1.010;2023-02-04T06:08:49;102665.66;;;7.86;81.40
62946;BME280;52164;52.212;-1.010;2023-02-04T06:11:15;102663.25;;;7.84;80.99
62946;BME280;52164;52.212;-1.010;2023-02-04T06:13:40;102660.70;;;7.82;81.27
62946;BME280;52164;52.212;-1.010;2023-02-04T06:16:06;102662.33;;;7.79;81.22
62946;BME280;52164;52.212;-1.010;2023-02-04T06:18:31;102660.02;;;7.76;81.44
62946;BME280;52164;52.212;-1.010;2023-02-04T06:20:56;102664.30;;;7.76;80.97
62946;BME280;52164;52.212;-1.010;2023-02-04T06:23:22;102662.83;;;7.74;81.23
62946;BME280;52164;52.212;-1.010;2023-02-04T06:25:47;102661.37;;;7.74;80.98
62946;BME280;52164;52.212;-1.010;2023-02-04T06:28:14;102668.29;;;7.73;81.15
62946;BME280;52164;52.212;-1.010;2023-02-04T06:30:39;102668.98;;;7.73;81.18
62946;BME280;52164;52.212;-1.010;2023-02-04T06:33:04;102672.40;;;7.74;81.00
62946;BME280;52164;52.212;-1.010;2023-02-04T06:35:30;102670.30;;;7.75;81.17
62946;BME280;52164;52.212;-1.010;2023-02-04T06:37:55;102669.30;;;7.76;81.17
62946;BME280;52164;52.212;-1.010;2023-02-04T06:40:20;102669.89;;;7.77;80.96
62946;BME280;52164;52.212;-1.010;2023-02-04T06:42:46;102669.20;;;7.78;80.90
62946;BME280;52164;52.212;-1.010;2023-02-04T06:45:11;102670.83;;;7.78;80.96
62946;BME280;52164;52.212;-1.010;2023-02-04T06:47:39;102670.98;;;7.78;80.74
62946;BME280;52164;52.212;-1.010;2023-02-04T06:50:04;102676.23;;;7.76;80.30
62946;BME280;52164;52.212;-1.010;2023-02-04T06:52:30;102675.41;;;7.73;80.46
62946;BME280;52164;52.212;-1.010;2023-02-04T06:54:55;102674.77;;;7.71;80.18
62946;BME280;52164;52.212;-1.010;2023-02-04T06:57:20;102677.48;;;7.68;80.39
62946;BME280;52164;52.212;-1.010;2023-02-04T06:59:45;102679.33;;;7.66;80.26
62946;BME280;52164;52.212;-1.010;2023-02-04T07:02:11;102686.15;;;7.64;80.24
62946;BME280;52164;52.212;-1.010;2023-02-04T07:04:36;102688.64;;;7.64;79.93
62946;BME280;52164;52.212;-1.010;2023-02-04T07:07:02;102688.38;;;7.62;80.20
62946;BME280;52164;52.212;-1.010;2023-02-04T07:09:27;102688.67;;;7.61;80.26
62946;BME280;52164;52.212;-1.010;2023-02-04T07:11:53;102689.88;;;7.60;80.27
62946;BME280;52164;52.212;-1.010;2023-02-04T07:14:18;102686.32;;;7.60;79.97
62946;BME280;52164;52.212;-1.010;2023-02-04T07:16:44;102684.86;;;7.59;80.05
62946;BME280;52164;52.212;-1.010;2023-02-04T07:19:09;102685.55;;;7.58;80.15
62946;BME280;52164;52.212;-1.010;2023-02-04T07:21:34;102684.69;;;7.59;79.96
62946;BME280;52164;52.212;-1.010;2023-02-04T07:23:59;102689.54;;;7.60;80.28
62946;BME280;52164;52.212;-1.010;2023-02-04T07:26:25;102691.00;;;7.61;80.20
62946;BME280;52164;52.212;-1.010;2023-02-04T07:28:50;102693.83;;;7.61;80.08
62946;BME280;52164;52.212;-1.010;2023-02-04T07:31:16;102697.50;;;7.60;80.06
62946;BME280;52164;52.212;-1.010;2023-02-04T07:33:41;102700.02;;;7.61;79.73
62946;BME280;52164;52.212;-1.010;2023-02-04T07:36:07;102701.03;;;7.59;79.81
62946;BME280;52164;52.212;-1.010;2023-02-04T07:38:32;102705.02;;;7.56;79.60
62946;BME280;52164;52.212;-1.010;2023-02-04T07:40:57;102707.94;;;7.55;79.34
62946;BME280;52164;52.212;-1.010;2023-02-04T07:43:23;102706.42;;;7.52;79.61
62946;BME280;52164;52.212;-1.010;2023-02-04T07:45:48;102706.20;;;7.52;79.40
62946;BME280;52164;52.212;-1.010;2023-02-04T07:48:16;102709.65;;;7.50;79.43
62946;BME280;52164;52.212;-1.010;2023-02-04T07:50:41;102716.20;;;7.49;79.85
62946;BME280;52164;52.212;-1.010;2023-02-04T07:53:06;102714.78;;;7.49;79.72
62946;BME280;52164;52.212;-1.010;2023-02-04T07:55:32;102718.61;;;7.51;80.12
62946;BME280;52164;52.212;-1.010;2023-02-04T07:57:57;102727.11;;;7.54;79.84
62946;BME280;52164;52.212;-1.010;2023-02-04T08:00:22;102731.50;;;7.57;80.07
62946;BME280;52164;52.212;-1.010;2023-02-04T08:02:48;102732.33;;;7.59;79.98
62946;BME280;52164;52.212;-1.010;2023-02-04T08:05:14;102740.27;;;7.62;79.59
62946;BME280;52164;52.212;-1.010;2023-02-04T08:07:40;102744.30;;;7.64;79.69
62946;BME280;52164;52.212;-1.010;2023-02-04T08:10:05;102742.23;;;7.66;79.65
62946;BME280;52164;52.212;-1.010;2023-02-04T08:12:31;102738.94;;;7.68;79.71
62946;BME280;52164;52.212;-1.010;2023-02-04T08:14:57;102740.23;;;7.69;79.25
62946;BME280;52164;52.212;-1.010;2023-02-04T08:17:22;102740.80;;;7.69;79.26
62946;BME280;52164;52.212;-1.010;2023-02-04T08:19:47;102740.25;;;7.69;79.16
62946;BME280;52164;52.212;-1.010;2023-02-04T08:22:12;102744.79;;;7.67;79.16
62946;BME280;52164;52.212;-1.010;2023-02-04T08:24:38;102750.43;;;7.67;79.08
62946;BME280;52164;52.212;-1.010;2023-02-04T08:27:03;102752.02;;;7.66;79.00
62946;BME280;52164;52.212;-1.010;2023-02-04T08:29:28;102756.65;;;7.66;78.99
62946;BME280;52164;52.212;-1.010;2023-02-04T08:31:54;102755.86;;;7.68;79.02
62946;BME280;52164;52.212;-1.010;2023-02-04T08:34:19;102759.90;;;7.71;79.23
62946;BME280;52164;52.212;-1.010;2023-02-04T08:36:44;102760.06;;;7.74;79.02
62946;BME280;52164;52.212;-1.010;2023-02-04T08:39:10;102765.17;;;7.77;79.29
62946;BME280;52164;52.212;-1.010;2023-02-04T08:41:36;102767.82;;;7.77;79.11
62946;BME280;52164;52.212;-1.010;2023-02-04T08:44:01;102774.16;;;7.80;78.83
62946;BME280;52164;52.212;-1.010;2023-02-04T08:46:27;102774.48;;;7.83;78.81
62946;BME280;52164;52.212;-1.010;2023-02-04T08:48:55;102778.85;;;7.85;78.46
62946;BME280;52164;52.212;-1.010;2023-02-04T08:51:21;102781.30;;;7.87;77.90
62946;BME280;52164;52.212;-1.010;2023-02-04T08:53:46;102781.88;;;7.92;77.94
62946;BME280;52164;52.212;-1.010;2023-02-04T08:56:12;102781.30;;;7.96;77.77
62946;BME280;52164;52.212;-1.010;2023-02-04T08:58:41;102785.61;;;8.00;77.65
62946;BME280;52164;52.212;-1.010;2023-02-04T09:01:06;102792.10;;;8.05;77.90
62946;BME280;52164;52.212;-1.010;2023-02-04T09:03:31;102796.77;;;8.10;77.70
62946;BME280;52164;52.212;-1.010;2023-02-04T09:05:57;102793.14;;;8.16;77.60
62946;BME280;52164;52.212;-1.010;2023-02-04T09:08:22;102793.15;;;8.21;77.61
62946;BME280;52164;52.212;-1.010;2023-02-04T09:10:47;102796.13;;;8.23;77.25
62946;BME280;52164;52.212;-1.010;2023-02-04T09:13:12;102800.34;;;8.30;77.36
62946;BME280;52164;52.212;-1.010;2023-02-04T09:15:38;102798.88;;;8.33;76.98
62946;BME280;52164;52.212;-1.010;2023-02-04T09:18:06;102801.11;;;8.39;77.11
62946;BME280;52164;52.212;-1.010;2023-02-04T09:20:41;102803.89;;;8.41;76.62
62946;BME280;52164;52.212;-1.010;2023-02-04T09:23:07;102803.48;;;8.44;76.30
62946;BME280;52164;52.212;-1.010;2023-02-04T09:25:34;102805.96;;;8.47;76.27
62946;BME280;52164;52.212;-1.010;2023-02-04T09:27:59;102804.27;;;8.49;76.42
62946;BME280;52164;52.212;-1.010;2023-02-04T09:30:25;102808.09;;;8.51;75.55
62946;BME280;52164;52.212;-1.010;2023-02-04T09:32:50;102808.36;;;8.53;75.90
62946;BME280;52164;52.212;-1.010;2023-02-04T09:35:15;102806.69;;;8.55;75.66
62946;BME280;52164;52.212;-1.010;2023-02-04T09:37:41;102810.84;;;8.57;76.09
62946;BME280;52164;52.212;-1.010;2023-02-04T09:40:06;102808.24;;;8.58;75.52
62946;BME280;52164;52.212;-1.010;2023-02-04T09:42:32;102806.90;;;8.60;75.46
62946;BME280;52164;52.212;-1.010;2023-02-04T09:44:57;102808.48;;;8.64;75.55
62946;BME280;52164;52.212;-1.010;2023-02-04T09:47:24;102812.39;;;8.68;75.39
62946;BME280;52164;52.212;-1.010;2023-02-04T09:49:55;102813.85;;;8.72;75.34
62946;BME280;52164;52.212;-1.010;2023-02-04T09:52:20;102810.98;;;8.76;75.27
62946;BME280;52164;52.212;-1.010;2023-02-04T09:54:48;102816.02;;;8.81;75.23
62946;BME280;52164;52.212;-1.010;2023-02-04T09:57:14;102814.19;;;8.88;75.23
62946;BME280;52164;52.212;-1.010;2023-02-04T09:59:42;102814.96;;;8.94;74.92
62946;BME280;52164;52.212;-1.010;2023-02-04T10:02:23;102814.01;;;8.96;74.90
62946;BME280;52164;52.212;-1.010;2023-02-04T10:04:50;102813.21;;;8.98;74.57
62946;BME280;52164;52.212;-1.010;2023-02-04T10:07:21;102807.38;;;9.00;74.32
62946;BME280;52164;52.212;-1.010;2023-02-04T10:09:49;102801.88;;;9.00;74.33
62946;BME280;52164;52.212;-1.010;2023-02-04T10:12:15;102804.79;;;9.02;74.24
62946;BME280;52164;52.212;-1.010;2023-02-04T10:14:40;102803.92;;;9.02;74.22
62946;BME280;52164;52.212;-1.010;2023-02-04T10:17:06;102801.45;;;9.03;74.25
62946;BME280;52164;52.212;-1.010;2023-02-04T10:19:32;102804.23;;;9.05;74.11
62946;BME280;52164;52.212;-1.010;2023-02-04T10:21:57;102802.90;;;9.08;73.96
62946;BME280;52164;52.212;-1.010;2023-02-04T10:24:24;102800.92;;;9.11;73.78
62946;BME280;52164;52.212;-1.010;2023-02-04T10:26:50;102811.14;;;9.17;73.91
62946;BME280;52164;52.212;-1.010;2023-02-04T10:29:17;102812.23;;;9.21;73.75
62946;BME280;52164;52.212;-1.010;2023-02-04T10:31:44;102815.86;;;9.23;73.45
62946;BME280;52164;52.212;-1.010;2023-02-04T10:34:15;102820.81;;;9.22;73.14
62946;BME280;52164;52.212;-1.010;2023-02-04T10:36:43;102820.45;;;9.22;73.08
62946;BME280;52164;52.212;-1.010;2023-02-04T10:41:35;102819.33;;;9.21;72.74
62946;BME280;52164;52.212;-1.010;2023-02-04T10:44:03;102819.39;;;9.18;72.46
62946;BME280;52164;52.212;-1.010;2023-02-04T10:46:29;102825.38;;;9.21;72.42
62946;BME280;52164;52.212;-1.010;2023-02-04T10:48:55;102823.09;;;9.21;72.35
62946;BME280;52164;52.212;-1.010;2023-02-04T10:51:22;102818.91;;;9.24;72.14
62946;BME280;52164;52.212;-1.010;2023-02-04T10:53:47;102822.08;;;9.27;72.49
62946;BME280;52164;52.212;-1.010;2023-02-04T10:56:32;102824.34;;;9.30;72.29
62946;BME280;52164;52.212;-1.010;2023-02-04T10:58:58;102818.40;;;9.32;72.24
62946;BME280;52164;52.212;-1.010;2023-02-04T11:01:23;102819.82;;;9.37;71.80
62946;BME280;52164;52.212;-1.010;2023-02-04T11:03:50;102824.77;;;9.41;71.96
62946;BME280;52164;52.212;-1.010;2023-02-04T11:06:17;102830.98;;;9.40;71.68
62946;BME280;52164;52.212;-1.010;2023-02-04T11:08:44;102826.66;;;9.34;71.39
62946;BME280;52164;52.212;-1.010;2023-02-04T11:11:13;102824.48;;;9.33;71.26
62946;BME280;52164;52.212;-1.010;2023-02-04T11:13:41;102826.20;;;9.31;71.19
62946;BME280;52164;52.212;-1.010;2023-02-04T11:16:09;102830.98;;;9.31;71.03
62946;BME280;52164;52.212;-1.010;2023-02-04T11:18:43;102836.03;;;9.28;70.78
62946;BME280;52164;52.212;-1.010;2023-02-04T11:21:13;102839.69;;;9.26;71.03
62946;BME280;52164;52.212;-1.010;2023-02-04T11:23:38;102838.55;;;9.24;70.94
62946;BME280;52164;52.212;-1.010;2023-02-04T11:26:05;102839.34;;;9.26;70.97
62946;BME280;52164;52.212;-1.010;2023-02-04T11:28:44;102837.85;;;9.29;71.02
62946;BME280;52164;52.212;-1.010;2023-02-04T11:31:13;102838.77;;;9.34;70.49
62946;BME280;52164;52.212;-1.010;2023-02-04T11:33:39;102845.18;;;9.38;70.50
62946;BME280;52164;52.212;-1.010;2023-02-04T11:36:06;102848.59;;;9.43;69.87
62946;BME280;52164;52.212;-1.010;2023-02-04T11:38:32;102846.64;;;9.47;69.79
62946;BME280;52164;52.212;-1.010;2023-02-04T11:40:58;102842.48;;;9.50;69.70
62946;BME280;52164;52.212;-1.010;2023-02-04T11:43:24;102843.86;;;9.54;69.49
62946;BME280;52164;52.212;-1.010;2023-02-04T11:46:11;102845.75;;;9.56;69.17
62946;BME280;52164;52.212;-1.010;2023-02-04T11:48:35;102849.20;;;9.58;69.05
62946;BME280;52164;52.212;-1.010;2023-02-04T11:51:02;102848.14;;;9.58;68.95
62946;BME280;52164;52.212;-1.010;2023-02-04T11:53:30;102843.57;;;9.55;68.46
62946;BME280;52164;52.212;-1.010;2023-02-04T11:55:57;102838.40;;;9.55;68.26
62946;BME280;52164;52.212;-1.010;2023-02-04T11:58:22;102837.27;;;9.54;67.97
62946;BME280;52164;52.212;-1.010;2023-02-04T12:00:50;102835.31;;;9.54;67.80
62946;BME280;52164;52.212;-1.010;2023-02-04T12:03:20;102832.20;;;9.52;67.49
62946;BME280;52164;52.212;-1.010;2023-02-04T12:05:46;102830.45;;;9.48;67.23
62946;BME280;52164;52.212;-1.010;2023-02-04T12:08:21;102835.58;;;9.47;67.43
62946;BME280;52164;52.212;-1.010;2023-02-04T12:13:16;102831.34;;;9.48;67.78
62946;BME280;52164;52.212;-1.010;2023-02-04T12:15:41;102833.34;;;9.49;67.44
62946;BME280;52164;52.212;-1.010;2023-02-04T12:18:16;102836.53;;;9.49;67.31
62946;BME280;52164;52.212;-1.010;2023-02-04T12:20:41;102836.09;;;9.51;67.15
62946;BME280;52164;52.212;-1.010;2023-02-04T12:23:07;102840.65;;;9.53;67.39
62946;BME280;52164;52.212;-1.010;2023-02-04T12:25:32;102840.60;;;9.57;67.52
62946;BME280;52164;52.212;-1.010;2023-02-04T12:27:58;102840.30;;;9.58;67.00
62946;BME280;52164;52.212;-1.010;2023-02-04T12:30:23;102838.73;;;9.59;66.86
62946;BME280;52164;52.212;-1.010;2023-02-04T12:32:50;102844.70;;;9.61;66.84
62946;BME280;52164;52.212;-1.010;2023-02-04T12:35:15;102844.95;;;9.63;66.98
62946;BME280;52164;52.212;-1.010;2023-02-04T12:37:41;102841.73;;;9.62;66.63
62946;BME280;52164;52.212;-1.010;2023-02-04T12:40:06;102838.17;;;9.62;66.97
62946;BME280;52164;52.212;-1.010;2023-02-04T12:42:32;102834.45;;;9.63;66.78
62946;BME280;52164;52.212;-1.010;2023-02-04T12:44:57;102834.54;;;9.65;66.67
62946;BME280;52164;52.212;-1.010;2023-02-04T12:47:23;102831.68;;;9.70;66.90
62946;BME280;52164;52.212;-1.010;2023-02-04T12:49:49;102824.41;;;9.75;67.06
62946;BME280;52164;52.212;-1.010;2023-02-04T12:52:14;102820.63;;;9.79;66.64